createdAt,value
2018-11-28T00:02:04.014Z,79.75
2018-11-28T00:04:34.059Z,78.72
2018-11-28T00:07:03.595Z,79.75
2018-11-28T00:09:39.829Z,79.54
2018-11-28T00:12:12.187Z,79.94
2018-11-28T00:14:40.807Z,79.46
2018-11-28T00:17:44.144Z,79.11
2018-11-28T00:20:27.915Z,79.87
2018-11-28T00:26:15.205Z,79.21
2018-11-28T00:28:43.780Z,79.66
2018-11-28T00:31:12.427Z,79.80
2018-11-28T00:33:42.548Z,79.32
2018-11-28T00:36:25.388Z,79.89
2018-11-28T00:38:53.989Z,79.63
2018-11-28T00:41:22.584Z,79.83
2018-11-28T00:43:52.705Z,79.92
2018-11-28T00:46:21.372Z,80.43
2018-11-28T00:48:49.965Z,80.75
2018-11-28T00:51:18.658Z,81.19
2018-11-28T00:53:47.269Z,81.10
2018-11-28T00:56:15.951Z,80.97
2018-11-28T00:58:44.710Z,81.28
2018-11-28T01:01:13.352Z,81.33
2018-11-28T01:03:42.023Z,81.48
2018-11-28T01:06:10.628Z,81.33
2018-11-28T01:08:39.374Z,82.07
2018-11-28T01:11:08.045Z,82.33
2018-11-28T01:13:36.671Z,81.42
2018-11-28T01:16:05.823Z,82.20
2018-11-28T01:18:34.456Z,82.29
2018-11-28T01:21:03.133Z,81.49
2018-11-28T01:23:31.708Z,81.37
2018-11-28T01:26:00.310Z,81.58
2018-11-28T01:28:28.940Z,81.53
2018-11-28T01:30:57.620Z,81.36
2018-11-28T01:33:26.265Z,81.78
2018-11-28T01:35:54.918Z,82.19
2018-11-28T01:38:23.536Z,81.94
2018-11-28T01:40:52.152Z,80.68
2018-11-28T01:43:20.866Z,81.26
2018-11-28T01:45:49.481Z,82.10
2018-11-28T01:48:18.143Z,82.16
2018-11-28T01:50:46.781Z,81.82
2018-11-28T01:53:15.395Z,82.17
2018-11-28T01:55:44.005Z,81.15
2018-11-28T01:58:12.581Z,81.63
2018-11-28T02:00:41.264Z,81.95
2018-11-28T02:03:09.921Z,81.90
2018-11-28T02:05:38.518Z,81.61
2018-11-28T02:08:07.276Z,81.11
2018-11-28T02:10:35.985Z,81.37
2018-11-28T02:13:04.677Z,80.42
2018-11-28T02:15:33.313Z,80.16
2018-11-28T02:18:01.944Z,79.50
2018-11-28T02:20:30.727Z,80.27
2018-11-28T02:22:59.342Z,80.29
2018-11-28T02:25:27.949Z,80.28
2018-11-28T02:27:56.685Z,79.66
2018-11-28T02:30:25.347Z,78.92
2018-11-28T02:32:54.065Z,78.19
2018-11-28T02:35:22.697Z,78.56
2018-11-28T02:37:51.311Z,77.72
2018-11-28T02:40:20.533Z,78.61
2018-11-28T02:42:50.130Z,78.37
2018-11-28T02:45:20.697Z,78.71
2018-11-28T02:47:49.386Z,79.66
2018-11-28T02:50:18.091Z,80.47
2018-11-28T02:52:46.798Z,79.85
2018-11-28T02:55:22.362Z,80.12
2018-11-28T03:12:30.094Z,84.25
2018-11-28T03:14:58.738Z,84.54
2018-11-28T03:17:27.382Z,84.94
2018-11-28T03:19:56.039Z,85.24
2018-11-28T03:22:24.654Z,83.66
2018-11-28T03:24:53.268Z,84.33
2018-11-28T03:27:22.214Z,84.59
2018-11-28T03:29:50.801Z,84.66
2018-11-28T03:32:19.409Z,84.73
2018-11-28T03:34:48.064Z,84.72
2018-11-28T03:37:16.677Z,85.34
2018-11-28T03:39:45.278Z,85.29
2018-11-28T03:42:13.870Z,85.34
2018-11-28T03:44:42.442Z,86.28
2018-11-28T03:47:11.068Z,86.07
2018-11-28T03:49:39.683Z,85.49
2018-11-28T03:52:08.435Z,86.01
2018-11-28T03:54:37.530Z,85.31
2018-11-28T03:57:06.333Z,86.04
2018-11-28T03:59:34.900Z,84.89
2018-11-28T04:02:03.548Z,85.42
2018-11-28T04:04:32.151Z,86.48
2018-11-28T04:07:00.748Z,85.67
2018-11-28T04:09:29.384Z,86.11
2018-11-28T04:11:58.127Z,85.58
2018-11-28T04:14:26.724Z,85.70
2018-11-28T04:16:55.390Z,85.72
2018-11-28T04:19:24.019Z,86.14
2018-11-28T04:21:52.643Z,85.21
2018-11-28T04:24:21.310Z,86.30
2018-11-28T04:26:49.949Z,85.50
2018-11-28T04:29:18.946Z,85.41
2018-11-28T04:31:47.582Z,85.27
2018-11-28T04:34:16.228Z,84.70
2018-11-28T04:36:44.936Z,84.07
2018-11-28T04:39:13.549Z,84.63
2018-11-28T04:41:42.137Z,85.15
2018-11-28T04:44:10.789Z,84.77
2018-11-28T04:46:39.477Z,83.90
2018-11-28T04:49:08.446Z,85.06
2018-11-28T04:51:37.171Z,84.59
2018-11-28T04:54:05.850Z,85.15
2018-11-28T04:56:34.595Z,84.37
2018-11-28T04:59:03.213Z,84.46
2018-11-28T05:01:31.932Z,84.39
2018-11-28T05:04:00.574Z,85.45
2018-11-28T05:07:33.450Z,85.36
2018-11-28T05:10:02.125Z,84.13
2018-11-28T05:12:30.808Z,84.50
2018-11-28T05:14:59.402Z,84.70
2018-11-28T05:17:28.164Z,86.01
2018-11-28T05:19:56.875Z,85.83
2018-11-28T05:22:25.547Z,86.15
2018-11-28T05:24:54.230Z,87.07
2018-11-28T05:27:22.856Z,86.43
2018-11-28T05:29:51.517Z,85.21
2018-11-28T05:32:20.184Z,86.41
2018-11-28T05:34:48.866Z,85.42
2018-11-28T05:37:17.495Z,84.44
2018-11-28T05:39:46.563Z,83.43
2018-11-28T05:42:15.172Z,83.81
2018-11-28T05:44:43.786Z,82.92
2018-11-28T05:47:12.451Z,82.32
2018-11-28T05:49:41.093Z,82.04
2018-11-28T05:52:09.817Z,81.90
2018-11-28T05:54:38.468Z,81.53
2018-11-28T05:57:07.648Z,81.37
2018-11-28T05:59:36.319Z,81.66
2018-11-28T06:02:05.217Z,81.77
2018-11-28T06:04:33.880Z,81.62
2018-11-28T06:07:02.545Z,81.80
2018-11-28T06:09:31.256Z,81.42
2018-11-28T06:11:59.905Z,80.13
2018-11-28T06:14:28.670Z,79.87
2018-11-28T06:16:57.405Z,81.93
2018-11-28T06:19:26.099Z,81.06
2018-11-28T06:21:54.796Z,80.92
2018-11-28T06:24:23.464Z,80.62
2018-11-28T06:26:52.075Z,80.82
2018-11-28T06:29:20.774Z,80.81
2018-11-28T06:31:49.440Z,80.17
2018-11-28T06:34:18.036Z,80.76
2018-11-28T06:36:46.646Z,80.20
2018-11-28T06:39:15.391Z,79.50
2018-11-28T06:41:44.044Z,78.75
2018-11-28T06:44:12.697Z,79.23
2018-11-28T06:46:41.396Z,79.67
2018-11-28T06:49:10.023Z,79.59
2018-11-28T06:51:38.716Z,78.93
2018-11-28T06:54:07.363Z,79.25
2018-11-28T06:56:36.095Z,79.16
2018-11-28T06:59:04.850Z,79.02
2018-11-28T07:06:20.662Z,77.31
2018-11-28T07:08:49.967Z,77.15
2018-11-28T07:11:18.632Z,76.18
2018-11-28T07:13:47.387Z,77.33
2018-11-28T07:16:16.032Z,78.31
2018-11-28T07:18:55.644Z,77.98
2018-11-28T07:21:24.282Z,76.97
2018-11-28T07:23:53.604Z,75.16
2018-11-28T07:26:22.266Z,75.15
2018-11-28T07:28:51.497Z,76.99
2018-11-28T07:31:20.218Z,75.71
2018-11-28T07:33:48.912Z,75.79
2018-11-28T07:36:17.481Z,73.94
2018-11-28T07:38:46.093Z,74.30
2018-11-28T07:41:14.750Z,76.39
2018-11-28T07:43:43.451Z,72.99
2018-11-28T07:46:12.067Z,74.48
2018-11-28T07:48:40.748Z,71.61
2018-11-28T07:51:09.472Z,74.49
2018-11-28T07:53:38.126Z,73.24
2018-11-28T07:56:06.878Z,71.18
2018-11-28T07:58:35.493Z,74.54
2018-11-28T08:01:04.175Z,73.27
2018-11-28T08:03:32.827Z,74.53
2018-11-28T08:06:01.488Z,76.42
2018-11-28T08:08:34.230Z,75.68
2018-11-28T08:11:03.014Z,75.50
2018-11-28T08:13:31.656Z,75.73
2018-11-28T08:16:00.267Z,76.59
2018-11-28T08:18:28.897Z,77.32
2018-11-28T08:20:57.643Z,76.25
2018-11-28T08:23:26.253Z,75.30
2018-11-28T08:25:54.996Z,75.51
2018-11-28T08:28:23.725Z,76.70
2018-11-28T08:30:52.379Z,76.42
2018-11-28T08:33:21.481Z,75.50
2018-11-28T08:35:50.594Z,75.55
2018-11-28T08:38:19.301Z,75.14
2018-11-28T08:40:47.924Z,74.80
2018-11-28T08:43:16.609Z,74.87
2018-11-28T08:45:45.394Z,73.56
2018-11-28T08:48:19.776Z,75.12
2018-11-28T08:50:49.163Z,76.81
2018-11-28T08:53:17.785Z,76.69
2018-11-28T08:55:46.537Z,77.06
2018-11-28T08:58:15.158Z,77.32
2018-11-28T09:00:43.789Z,75.71
2018-11-28T09:03:12.464Z,75.85
2018-11-28T09:05:41.110Z,75.68
2018-11-28T09:08:10.045Z,75.99
2018-11-28T09:10:38.713Z,75.40
2018-11-28T09:13:07.587Z,74.44
2018-11-28T09:15:36.266Z,72.61
2018-11-28T09:18:05.049Z,74.10
2018-11-28T09:20:33.954Z,75.79
2018-11-28T09:23:02.376Z,74.90
2018-11-28T09:25:31.021Z,75.56
2018-11-28T09:28:00.004Z,75.36
2018-11-28T09:30:28.711Z,75.51
2018-11-28T09:32:57.358Z,75.88
2018-11-28T09:35:26.033Z,75.47
2018-11-28T09:37:54.996Z,75.27
2018-11-28T09:40:24.730Z,76.20
2018-11-28T09:42:54.556Z,75.30
2018-11-28T09:45:23.230Z,75.19
2018-11-28T09:47:52.239Z,75.84
2018-11-28T09:50:21.858Z,78.78
2018-11-28T09:52:50.554Z,79.07
2018-11-28T09:55:28.536Z,78.01
2018-11-28T09:57:57.896Z,76.29
2018-11-28T10:00:30.066Z,74.31
2018-11-28T10:02:59.706Z,74.77
2018-11-28T10:05:30.433Z,76.25
2018-11-28T10:07:59.165Z,77.17
2018-11-28T10:10:27.793Z,75.68
2018-11-28T10:12:56.556Z,75.57
2018-11-28T10:15:26.139Z,75.53
2018-11-28T10:17:54.834Z,76.26
2018-11-28T10:20:23.461Z,77.61
2018-11-28T10:22:53.028Z,78.61
2018-11-28T10:25:22.917Z,76.61
2018-11-28T10:27:55.148Z,74.93
2018-11-28T10:30:24.992Z,76.24
2018-11-28T10:32:54.502Z,76.83
2018-11-28T10:35:23.268Z,78.21
2018-11-28T10:37:52.013Z,77.66
2018-11-28T10:40:21.671Z,75.59
2018-11-28T10:42:51.509Z,76.25
2018-11-28T10:45:22.842Z,76.70
2018-11-28T10:47:52.024Z,75.45
2018-11-28T10:50:20.739Z,76.03
2018-11-28T10:52:49.412Z,75.79
2018-11-28T10:55:19.968Z,75.50
2018-11-28T10:57:48.730Z,74.72
2018-11-28T11:00:24.673Z,75.13
2018-11-28T11:02:58.517Z,75.20
2018-11-28T11:05:32.334Z,75.75
2018-11-28T11:08:06.255Z,75.94
2018-11-28T11:10:40.296Z,76.25
2018-11-28T11:13:14.199Z,77.11
2018-11-28T11:15:43.020Z,75.99
2018-11-28T11:18:12.566Z,76.51
2018-11-28T11:20:41.183Z,76.08
2018-11-28T11:23:09.960Z,75.79
2018-11-28T11:25:38.691Z,75.30
2018-11-28T11:28:07.696Z,77.07
2018-11-28T11:30:36.440Z,76.86
2018-11-28T11:33:05.365Z,78.79
2018-11-28T11:35:34.095Z,76.26
2018-11-28T11:38:02.910Z,75.51
2018-11-28T11:40:31.558Z,75.56
2018-11-28T11:43:00.321Z,74.83
2018-11-28T11:45:29.030Z,75.45
2018-11-28T11:47:57.734Z,77.08
2018-11-28T11:50:26.577Z,77.47
2018-11-28T11:52:55.370Z,75.38
2018-11-28T11:55:24.059Z,75.57
2018-11-28T11:57:53.525Z,77.00
2018-11-28T12:00:26.657Z,76.62
2018-11-28T12:02:59.845Z,76.73
2018-11-28T12:05:28.562Z,75.79
2018-11-28T12:07:57.239Z,75.15
2018-11-28T12:10:25.945Z,76.33
2018-11-28T12:12:54.636Z,76.79
2018-11-28T12:15:23.512Z,76.36
2018-11-28T12:17:52.156Z,76.48
2018-11-28T12:20:27.477Z,76.16
2018-11-28T12:22:56.102Z,74.96
2018-11-28T12:25:24.884Z,76.58
2018-11-28T12:27:53.530Z,76.72
2018-11-28T12:30:23.232Z,76.04
2018-11-28T12:32:51.940Z,76.95
2018-11-28T12:35:20.816Z,77.31
2018-11-28T12:37:49.487Z,76.43
2018-11-28T12:40:18.313Z,76.13
2018-11-28T12:42:48.607Z,76.75
2018-11-28T12:45:18.198Z,75.41
2018-11-28T12:47:48.068Z,76.60
2018-11-28T12:50:22.950Z,76.45
2018-11-28T12:52:52.210Z,76.65
2018-11-28T12:55:21.336Z,76.93
2018-11-28T12:57:50.437Z,74.64
2018-11-28T13:00:21.949Z,76.03
2018-11-28T13:02:50.899Z,74.50
2018-11-28T13:05:33.809Z,75.24
2018-11-28T13:08:02.610Z,75.39
2018-11-28T13:10:34.754Z,75.95
2018-11-28T13:13:03.638Z,74.95
2018-11-28T13:15:32.341Z,75.62
2018-11-28T13:18:01.002Z,75.32
2018-11-28T13:20:30.091Z,74.83
2018-11-28T13:22:58.811Z,74.11
2018-11-28T13:25:28.327Z,74.61
2018-11-28T13:27:57.382Z,74.60
2018-11-28T13:30:26.604Z,76.36
2018-11-28T13:32:55.955Z,75.32
2018-11-28T13:35:26.694Z,75.71
2018-11-28T13:37:59.094Z,75.80
2018-11-28T13:40:27.779Z,75.69
2018-11-28T13:42:56.403Z,75.60
2018-11-28T13:45:27.761Z,75.61
2018-11-28T13:47:56.710Z,76.09
2018-11-28T13:50:25.444Z,75.18
2018-11-28T13:52:55.027Z,76.36
2018-11-28T13:55:38.216Z,75.14
2018-11-28T13:57:58.035Z,75.99
2018-11-28T14:00:26.758Z,76.11
2018-11-28T14:02:55.594Z,75.75
2018-11-28T14:05:24.356Z,76.82
2018-11-28T14:07:53.695Z,76.86
2018-11-28T14:10:22.448Z,76.50
2018-11-28T14:12:51.344Z,77.37
2018-11-28T14:15:22.811Z,77.68
2018-11-28T14:17:55.988Z,76.94
2018-11-28T14:20:24.680Z,76.59
2018-11-28T14:22:53.349Z,76.21
2018-11-28T14:25:22.050Z,76.61
2018-11-28T14:27:50.935Z,75.68
2018-11-28T14:30:20.641Z,75.73
2018-11-28T14:32:49.666Z,74.52
2018-11-28T14:35:18.580Z,76.00
2018-11-28T14:37:47.356Z,75.07
2018-11-28T14:40:17.907Z,74.86
2018-11-28T14:42:48.830Z,75.36
2018-11-28T14:45:18.272Z,74.46
2018-11-28T14:47:49.146Z,74.68
2018-11-28T14:50:29.530Z,74.44
2018-11-28T14:53:00.183Z,74.71
2018-11-28T14:55:30.781Z,75.31
2018-11-28T14:57:59.507Z,75.99
2018-11-28T15:00:29.305Z,76.50
2018-11-28T15:03:01.173Z,75.66
2018-11-28T15:06:11.764Z,75.08
2018-11-28T15:08:40.529Z,75.29
2018-11-28T15:11:15.801Z,76.09
2018-11-28T15:13:44.980Z,75.97
2018-11-28T15:16:18.311Z,76.22
2018-11-28T15:18:47.156Z,77.87
2018-11-28T15:21:15.932Z,76.92
2018-11-28T15:23:44.705Z,75.85
2018-11-28T15:26:13.355Z,76.57
2018-11-28T15:28:43.090Z,77.27
2018-11-28T15:31:11.818Z,77.27
2018-11-28T15:33:40.513Z,77.58
2018-11-28T15:36:09.216Z,75.92
2018-11-28T15:38:38.188Z,75.71
2018-11-28T15:41:07.180Z,75.14
2018-11-28T15:43:42.367Z,76.96
2018-11-28T15:46:14.808Z,75.86
2018-11-28T15:48:39.852Z,76.17
2018-11-28T15:51:08.622Z,76.30
2018-11-28T15:53:37.410Z,75.58
2018-11-28T15:56:06.420Z,75.21
2018-11-28T15:58:35.184Z,76.14
2018-11-28T16:01:03.919Z,74.11
2018-11-28T16:03:32.684Z,76.91
2018-11-28T16:06:01.438Z,78.34
2018-11-28T16:08:30.094Z,77.37
2018-11-28T16:10:58.742Z,77.78
2018-11-28T16:13:27.324Z,73.77
2018-11-28T16:15:57.217Z,76.96
2018-11-28T16:18:25.920Z,78.07
2018-11-28T16:20:54.598Z,77.86
2018-11-28T16:23:23.262Z,76.06
2018-11-28T16:25:51.880Z,77.06
2018-11-28T16:28:20.666Z,76.85
2018-11-28T16:30:49.322Z,77.20
2018-11-28T16:33:17.979Z,78.96
2018-11-28T16:35:46.634Z,77.43
2018-11-28T16:38:15.313Z,76.68
2018-11-28T16:40:43.967Z,77.18
2018-11-28T16:43:12.751Z,76.02
2018-11-28T16:45:41.936Z,74.79
2018-11-28T16:48:10.156Z,75.69
2018-11-28T16:50:38.775Z,74.57
2018-11-28T16:53:08.085Z,74.64
2018-11-28T16:55:38.754Z,74.60
2018-11-28T16:58:10.897Z,75.00
2018-11-28T17:00:41.291Z,74.81
2018-11-28T17:03:09.942Z,75.00
2018-11-28T17:05:38.874Z,77.15
2018-11-28T17:08:09.334Z,76.55
2018-11-28T17:10:38.031Z,75.28
2018-11-28T17:13:07.354Z,74.96
2018-11-28T17:15:36.106Z,75.71
2018-11-28T17:18:08.266Z,74.84
2018-11-28T17:20:39.370Z,75.26
2018-11-28T17:23:08.140Z,75.10
2018-11-28T17:25:36.843Z,75.41
2018-11-28T17:28:05.787Z,74.11
2018-11-28T17:30:34.506Z,75.05
2018-11-28T17:33:03.085Z,75.89
2018-11-28T17:35:31.763Z,76.79
2018-11-28T17:38:01.953Z,75.07
2018-11-28T17:40:30.631Z,77.48
2018-11-28T17:43:00.061Z,76.69
2018-11-28T17:45:29.498Z,76.15
2018-11-28T17:47:58.095Z,74.77
2018-11-28T17:50:27.407Z,75.11
2018-11-28T17:53:16.266Z,76.14
2018-11-28T17:55:48.487Z,75.26
2018-11-28T17:58:17.189Z,76.17
2018-11-28T18:00:45.908Z,76.29
2018-11-28T18:03:14.700Z,75.20
2018-11-28T18:05:43.360Z,74.84
2018-11-28T18:08:12.008Z,75.35
2018-11-28T18:10:40.711Z,74.32
2018-11-28T18:13:12.499Z,74.11
2018-11-28T18:15:44.894Z,75.35
2018-11-28T18:18:14.948Z,74.99
2018-11-28T18:20:49.908Z,75.01
2018-11-28T18:23:13.062Z,74.16
2018-11-28T18:25:42.342Z,74.51
2018-11-28T18:28:11.143Z,72.99
2018-11-28T18:30:40.210Z,73.90
2018-11-28T18:33:10.086Z,72.35
2018-11-28T18:35:38.731Z,74.29
2018-11-28T18:38:07.433Z,73.62
2018-11-28T18:40:36.578Z,72.99
2018-11-28T18:43:05.794Z,73.73
2018-11-28T18:45:36.443Z,72.57
2018-11-28T18:48:04.593Z,72.72
2018-11-28T18:50:33.337Z,73.25
2018-11-28T18:53:01.952Z,72.83
2018-11-28T18:55:30.610Z,73.72
2018-11-28T18:57:59.295Z,71.57
2018-11-28T19:00:28.374Z,72.69
2018-11-28T19:02:57.248Z,73.59
2018-11-28T19:05:25.940Z,71.89
2018-11-28T19:07:54.670Z,72.57
2018-11-28T19:10:26.643Z,73.52
2018-11-28T19:12:53.954Z,72.67
2018-11-28T19:15:25.879Z,72.77
2018-11-28T19:17:55.439Z,73.82
2018-11-28T19:20:24.577Z,74.07
2018-11-28T19:22:56.235Z,75.53
2018-11-28T19:25:38.106Z,74.37
2018-11-28T19:28:06.818Z,73.42
2018-11-28T19:30:46.389Z,72.97
2018-11-28T19:33:15.925Z,72.89
2018-11-28T19:35:44.951Z,72.88
2018-11-28T19:38:14.854Z,71.79
2018-11-28T19:40:48.316Z,71.85
2018-11-28T19:43:17.028Z,72.96
2018-11-28T19:45:46.848Z,72.65
2018-11-28T19:48:15.546Z,72.28
2018-11-28T19:50:44.239Z,73.20
2018-11-28T19:53:13.048Z,74.12
2018-11-28T19:55:42.559Z,72.83
2018-11-28T19:58:11.498Z,73.66
2018-11-28T20:00:43.160Z,72.58
2018-11-28T20:03:11.861Z,73.31
2018-11-28T20:05:40.552Z,73.94
2018-11-28T20:08:09.300Z,73.21
2018-11-28T20:10:38.005Z,72.78
2018-11-28T20:13:08.382Z,72.89
2018-11-28T20:15:37.247Z,74.75
2018-11-28T20:18:06.556Z,74.41
2018-11-28T20:20:35.378Z,74.55
2018-11-28T20:23:04.002Z,74.41
2018-11-28T20:25:32.677Z,74.37
2018-11-28T20:28:01.299Z,73.55
2018-11-28T20:30:31.542Z,74.14
2018-11-28T20:33:00.343Z,74.65
2018-11-28T20:35:29.034Z,74.67
2018-11-28T20:37:58.284Z,74.07
2018-11-28T20:40:31.325Z,74.53
2018-11-28T20:43:00.046Z,74.38
2018-11-28T20:45:29.368Z,75.31
2018-11-28T20:47:58.064Z,75.04
2018-11-28T20:50:32.369Z,75.02
2018-11-28T20:53:07.100Z,75.02
2018-11-28T20:55:35.888Z,75.87
2018-11-28T20:58:04.583Z,75.06
2018-11-28T21:00:36.004Z,74.30
2018-11-28T21:03:05.479Z,73.52
2018-11-28T21:05:34.214Z,73.85
2018-11-28T21:08:06.028Z,74.75
2018-11-28T21:10:35.132Z,74.25
2018-11-28T21:13:04.012Z,74.93
2018-11-28T21:15:32.831Z,73.81
2018-11-28T21:18:01.546Z,73.83
2018-11-28T21:20:30.239Z,73.21
2018-11-28T21:23:02.280Z,72.98
2018-11-28T21:25:31.194Z,73.62
2018-11-28T21:27:59.867Z,73.15
2018-11-28T21:30:28.577Z,73.76
2018-11-28T21:32:57.242Z,73.44
2018-11-28T21:35:29.998Z,74.07
2018-11-28T21:37:59.314Z,73.37
2018-11-28T21:40:28.085Z,72.99
2018-11-28T21:42:56.914Z,73.04
2018-11-28T21:45:26.203Z,72.06
2018-11-28T21:47:54.964Z,72.83
2018-11-28T21:50:23.604Z,73.03
2018-11-28T21:52:52.261Z,73.48
2018-11-28T21:55:22.015Z,72.67
2018-11-28T21:57:50.754Z,71.84
2018-11-28T22:00:25.581Z,72.45
2018-11-28T22:02:54.242Z,72.84
2018-11-28T22:05:23.342Z,72.79
2018-11-28T22:07:52.042Z,71.86
2018-11-28T22:10:22.694Z,72.93
2018-11-28T22:12:51.628Z,71.67
2018-11-28T22:15:20.280Z,71.94
2018-11-28T22:17:51.968Z,72.39
2018-11-28T22:20:20.748Z,72.04
2018-11-28T22:22:49.422Z,71.79
2018-11-28T22:25:20.906Z,71.85
2018-11-28T22:27:49.646Z,71.23
2018-11-28T22:30:23.133Z,71.54
2018-11-28T22:32:52.048Z,70.84
2018-11-28T22:35:20.827Z,72.27
2018-11-28T22:37:51.772Z,70.72
2018-11-28T22:40:26.753Z,71.02
2018-11-28T22:42:55.440Z,71.76
2018-11-28T22:45:29.927Z,72.11
2018-11-28T22:48:00.998Z,71.91
2018-11-28T22:50:29.674Z,72.13
2018-11-28T22:52:58.374Z,71.80
2018-11-28T22:55:27.052Z,71.97
2018-11-28T22:57:55.729Z,73.24
2018-11-28T23:00:30.299Z,72.26
2018-11-28T23:03:04.221Z,71.89
2018-11-28T23:05:40.697Z,72.00
2018-11-28T23:08:10.408Z,71.10
2018-11-28T23:10:39.357Z,70.96
2018-11-28T23:13:08.917Z,71.79
2018-11-28T23:15:37.663Z,71.82
2018-11-28T23:18:07.101Z,71.83
2018-11-28T23:20:36.305Z,71.84
2018-11-28T23:23:05.324Z,71.89
2018-11-28T23:25:33.945Z,72.37
2018-11-28T23:28:03.783Z,71.79
2018-11-28T23:30:32.467Z,72.69
2018-11-28T23:33:01.101Z,72.34
2018-11-28T23:35:29.822Z,72.26
2018-11-28T23:37:58.625Z,72.40
2018-11-28T23:40:27.486Z,73.21
2018-11-28T23:42:58.756Z,73.55
2018-11-28T23:45:27.790Z,74.74
2018-11-28T23:47:56.449Z,73.62
2018-11-28T23:50:26.939Z,72.74
2018-11-28T23:52:56.320Z,73.24
2018-11-28T23:55:26.751Z,73.40
2018-11-28T23:57:55.619Z,71.65
